Time,TemperatureF,DewpointF,PressureIn,WindDirection,WindDirectionDegrees,WindSpeedMPH,WindSpeedGustMPH,Humidity,HourlyPrecipIn,Conditions,Clouds,dailyrainin,SoftwareType,DateUTC
2013-10-10 00:14:00,55.0,54.0,30.07,NW,322,8.0,16.0,97,0.00,,,0.01,,2013-10-10 04:14:00,
2013-10-10 00:24:00,55.0,54.0,30.06,NNE,25,8.0,17.0,97,0.00,,,0.01,,2013-10-10 04:24:00,
2013-10-10 00:51:00,55.0,54.0,30.06,NNW,344,7.0,13.0,97,0.00,,,0.01,,2013-10-10 04:51:00,
2013-10-10 01:12:00,55.0,54.0,30.05,NNE,27,8.0,13.0,97,0.00,,,0.01,,2013-10-10 05:12:00,
2013-10-10 01:23:00,55.0,54.0,30.05,NNE,25,7.0,19.0,97,0.00,,,0.01,,2013-10-10 05:23:00,
2013-10-10 01:43:00,55.0,54.0,30.04,WNW,293,4.0,12.0,97,0.00,,,0.01,,2013-10-10 05:43:00,
2013-10-10 01:53:00,55.0,54.0,30.04,NNE,23,6.0,15.0,97,0.00,,,0.01,,2013-10-10 05:53:00,
2013-10-10 02:13:00,55.0,54.0,30.03,NNE,15,7.0,13.0,97,0.00,,,0.01,,2013-10-10 06:13:00,
2013-10-10 02:22:00,55.0,54.0,30.03,NNW,343,7.0,13.0,97,0.00,,,0.01,,2013-10-10 06:22:00,
2013-10-10 02:42:00,55.0,54.0,30.03,North,1,6.0,17.0,97,0.00,,,0.01,,2013-10-10 06:42:00,
2013-10-10 02:53:00,55.0,54.0,30.02,NNE,33,5.0,15.0,97,0.00,,,0.01,,2013-10-10 06:53:00,
2013-10-10 03:11:00,55.0,54.0,30.02,WNW,284,6.0,13.0,96,0.00,,,0.01,,2013-10-10 07:11:00,
2013-10-10 03:21:00,55.0,54.0,30.02,NW,321,5.0,13.0,95,0.00,,,0.01,,2013-10-10 07:21:00,
2013-10-10 03:42:00,55.0,53.0,30.01,North,354,5.0,12.0,94,0.00,,,0.01,,2013-10-10 07:42:00,
2013-10-10 03:52:00,55.0,53.0,30.01,North,356,9.0,16.0,94,0.00,,,0.01,,2013-10-10 07:52:00,
2013-10-10 04:11:00,55.0,53.0,30.01,NE,37,5.0,14.0,94,0.00,,,0.01,,2013-10-10 08:11:00,
2013-10-10 04:22:00,55.0,53.0,30.01,NE,44,6.0,15.0,94,0.00,,,0.01,,2013-10-10 08:22:00,
2013-10-10 04:43:00,55.0,53.0,30.01,NE,48,4.0,11.0,94,0.00,,,0.01,,2013-10-10 08:43:00,
2013-10-10 04:52:00,55.0,53.0,30.01,NNW,332,7.0,13.0,94,0.00,,,0.01,,2013-10-10 08:52:00,
2013-10-10 05:12:00,55.0,53.0,30.01,NW,309,5.0,11.0,94,0.00,,,0.01,,2013-10-10 09:12:00,
2013-10-10 05:22:00,55.0,53.0,30.01,NNW,328,5.0,11.0,94,0.00,,,0.01,,2013-10-10 09:22:00,
2013-10-10 05:43:00,55.0,53.0,30.00,NW,310,7.0,13.0,94,0.00,,,0.01,,2013-10-10 09:43:00,
2013-10-10 05:54:00,55.0,53.0,30.00,NNE,27,5.0,13.0,94,0.00,,,0.01,,2013-10-10 09:54:00,
2013-10-10 06:13:00,55.0,53.0,30.00,ENE,60,6.0,11.0,94,0.00,,,0.01,,2013-10-10 10:13:00,
2013-10-10 06:23:00,55.0,53.0,30.01,NW,314,6.0,11.0,94,0.00,,,0.01,,2013-10-10 10:23:00,
2013-10-10 06:42:00,55.0,53.0,30.01,WNW,302,4.0,11.0,94,0.00,,,0.01,,2013-10-10 10:42:00,
2013-10-10 06:53:00,54.0,53.0,30.01,NNW,330,4.0,10.0,95,0.00,,,0.01,,2013-10-10 10:53:00,
2013-10-10 07:12:00,54.0,53.0,30.01,North,359,5.0,12.0,96,0.00,,,0.01,,2013-10-10 11:12:00,
2013-10-10 07:22:00,54.0,53.0,30.01,WNW,282,5.0,12.0,95,0.00,,,0.01,,2013-10-10 11:22:00,
2013-10-10 07:42:00,54.0,53.0,30.01,NW,311,7.0,15.0,96,0.00,,,0.01,,2013-10-10 11:42:00,
2013-10-10 07:57:00,54.0,53.0,30.01,NNW,333,4.0,8.0,96,0.00,,,0.01,,2013-10-10 11:57:00,
2013-10-10 08:12:00,54.0,53.0,30.01,NW,323,6.0,9.0,96,0.00,,,0.01,,2013-10-10 12:12:00,
2013-10-10 08:21:00,54.0,53.0,30.01,NNW,334,6.0,11.0,96,0.00,,,0.01,,2013-10-10 12:21:00,
2013-10-10 08:42:00,54.0,53.0,30.01,WNW,298,4.0,11.0,97,0.01,,,0.02,,2013-10-10 12:42:00,
2013-10-10 08:52:00,54.0,53.0,30.01,NW,323,5.0,10.0,97,0.02,,,0.03,,2013-10-10 12:52:00,
2013-10-10 09:12:00,54.0,53.0,30.01,North,11,4.0,10.0,97,0.04,,,0.05,,2013-10-10 13:12:00,
2013-10-10 09:21:00,54.0,53.0,30.02,NNW,342,5.0,10.0,97,0.04,,,0.05,,2013-10-10 13:21:00,
2013-10-10 09:42:00,54.0,53.0,30.02,WNW,297,5.0,9.0,97,0.03,,,0.05,,2013-10-10 13:42:00,
2013-10-10 09:52:00,55.0,54.0,30.02,NNE,30,4.0,12.0,97,0.02,,,0.05,,2013-10-10 13:52:00,
2013-10-10 10:11:00,55.0,54.0,30.02,NNE,22,6.0,10.0,97,0.00,,,0.05,,2013-10-10 14:11:00,
2013-10-10 10:21:00,55.0,54.0,30.02,NE,55,5.0,11.0,97,0.00,,,0.05,,2013-10-10 14:21:00,
2013-10-10 10:42:00,55.0,54.0,30.02,NNW,328,4.0,13.0,97,0.00,,,0.05,,2013-10-10 14:42:00,
2013-10-10 10:52:00,56.0,55.0,30.01,NW,311,6.0,11.0,96,0.00,,,0.05,,2013-10-10 14:52:00,
2013-10-10 11:11:00,55.0,54.0,30.01,NW,319,7.0,12.0,96,0.00,,,0.05,,2013-10-10 15:11:00,
2013-10-10 11:22:00,56.0,55.0,30.01,North,352,6.0,10.0,96,0.00,,,0.05,,2013-10-10 15:22:00,
2013-10-10 11:43:00,56.0,55.0,30.01,North,6,5.0,11.0,96,0.00,,,0.05,,2013-10-10 15:43:00,
2013-10-10 11:54:00,56.0,55.0,30.01,North,352,5.0,15.0,96,0.00,,,0.05,,2013-10-10 15:54:00,
2013-10-10 12:13:00,56.0,55.0,30.01,NNW,342,5.0,11.0,96,0.00,,,0.05,,2013-10-10 16:13:00,
2013-10-10 12:23:00,56.0,55.0,30.01,NNW,335,5.0,10.0,95,0.00,,,0.05,,2013-10-10 16:23:00,
2013-10-10 12:42:00,56.0,55.0,30.01,WNW,302,4.0,10.0,95,0.00,,,0.05,,2013-10-10 16:42:00,
2013-10-10 12:53:00,57.0,56.0,30.01,WNW,300,4.0,8.0,96,0.00,,,0.05,,2013-10-10 16:53:00,
2013-10-10 13:12:00,57.0,56.0,30.00,NNE,18,4.0,10.0,96,0.00,,,0.05,,2013-10-10 17:12:00,
2013-10-10 13:23:00,57.0,56.0,29.99,NNW,338,3.0,9.0,96,0.00,,,0.05,,2013-10-10 17:23:00,
2013-10-10 13:42:00,57.0,56.0,29.98,WNW,302,4.0,11.0,96,0.00,,,0.05,,2013-10-10 17:42:00,
2013-10-10 13:53:00,58.0,57.0,29.98,WNW,290,5.0,14.0,95,0.00,,,0.05,,2013-10-10 17:53:00,
2013-10-10 14:12:00,58.0,56.0,29.98,WNW,285,7.0,14.0,94,0.00,,,0.05,,2013-10-10 18:12:00,
2013-10-10 14:21:00,58.0,56.0,29.97,NW,315,6.0,10.0,94,0.00,,,0.05,,2013-10-10 18:21:00,
2013-10-10 14:42:00,58.0,56.0,29.97,NNE,27,5.0,10.0,94,0.00,,,0.05,,2013-10-10 18:42:00,
2013-10-10 14:52:00,59.0,57.0,29.96,NNW,347,6.0,12.0,94,0.00,,,0.05,,2013-10-10 18:52:00,
2013-10-10 15:11:00,59.0,57.0,29.96,NNW,328,4.0,9.0,94,0.00,,,0.05,,2013-10-10 19:11:00,
2013-10-10 15:22:00,59.0,58.0,29.96,NW,304,4.0,8.0,95,0.00,,,0.05,,2013-10-10 19:22:00,
2013-10-10 15:42:00,59.0,58.0,29.96,NW,312,6.0,13.0,95,0.00,,,0.05,,2013-10-10 19:42:00,
2013-10-10 15:53:00,60.0,59.0,29.96,NNE,22,5.0,10.0,95,0.00,,,0.05,,2013-10-10 19:53:00,
2013-10-10 16:12:00,60.0,58.0,29.95,NNW,333,3.0,9.0,94,0.00,,,0.05,,2013-10-10 20:12:00,
2013-10-10 16:22:00,60.0,59.0,29.95,NNW,328,4.0,12.0,95,0.00,,,0.05,,2013-10-10 20:22:00,
2013-10-10 16:42:00,60.0,59.0,29.95,NW,309,5.0,13.0,95,0.00,,,0.05,,2013-10-10 20:42:00,
2013-10-10 16:52:00,60.0,58.0,29.95,NW,309,4.0,10.0,94,0.00,,,0.05,,2013-10-10 20:52:00,
2013-10-10 17:12:00,60.0,58.0,29.95,NW,316,5.0,10.0,94,0.00,,,0.05,,2013-10-10 21:12:00,
2013-10-10 17:22:00,60.0,58.0,29.95,NNW,342,6.0,13.0,94,0.00,,,0.05,,2013-10-10 21:22:00,
2013-10-10 17:44:00,61.0,60.0,29.95,NW,312,4.0,7.0,95,0.00,,,0.05,,2013-10-10 21:44:00,
2013-10-10 17:54:00,60.0,59.0,29.95,NW,315,5.0,11.0,96,0.01,,,0.06,,2013-10-10 21:54:00,
2013-10-10 18:13:00,60.0,59.0,29.95,WNW,300,6.0,10.0,96,0.01,,,0.06,,2013-10-10 22:13:00,
2013-10-10 18:24:00,60.0,59.0,29.95,North,360,3.0,7.0,96,0.01,,,0.06,,2013-10-10 22:24:00,
2013-10-10 18:43:00,60.0,59.0,29.95,NW,321,4.0,11.0,96,0.01,,,0.06,,2013-10-10 22:43:00,
2013-10-10 18:53:00,61.0,60.0,29.95,NW,315,4.0,8.0,96,0.00,,,0.06,,2013-10-10 22:53:00,
2013-10-10 19:12:00,61.0,60.0,29.95,NNW,338,4.0,9.0,96,0.00,,,0.06,,2013-10-10 23:12:00,
2013-10-10 19:23:00,61.0,60.0,29.95,NW,323,3.0,7.0,96,0.00,,,0.06,,2013-10-10 23:23:00,
2013-10-10 19:43:00,61.0,60.0,29.95,NW,308,4.0,7.0,96,0.00,,,0.06,,2013-10-10 23:43:00,
2013-10-10 19:53:00,61.0,60.0,29.95,NW,308,3.0,9.0,95,0.00,,,0.06,,2013-10-10 23:53:00,
2013-10-10 20:11:00,61.0,60.0,29.94,NW,322,4.0,7.0,95,0.00,,,0.06,,2013-10-11 00:11:00,
2013-10-10 20:22:00,61.0,60.0,29.94,NNE,20,3.0,10.0,95,0.00,,,0.06,,2013-10-11 00:22:00,
2013-10-10 20:42:00,61.0,60.0,29.95,NW,319,3.0,9.0,95,0.00,,,0.06,,2013-10-11 00:42:00,
2013-10-10 20:52:00,61.0,60.0,29.95,NW,320,4.0,10.0,95,0.00,,,0.06,,2013-10-11 00:52:00,
2013-10-10 21:12:00,61.0,60.0,29.95,NNW,327,3.0,7.0,96,0.00,,,0.06,,2013-10-11 01:12:00,
2013-10-10 21:22:00,61.0,60.0,29.95,North,356,5.0,9.0,96,0.00,,,0.06,,2013-10-11 01:22:00,
2013-10-10 21:32:00,61.0,60.0,29.95,North,356,5.0,9.0,96,0.00,,,0.06,,2013-10-11 01:32:00,
2013-10-10 21:42:00,61.0,60.0,29.95,North,356,5.0,9.0,96,0.00,,,0.06,,2013-10-11 01:42:00,
2013-10-10 21:52:00,61.0,60.0,29.95,North,356,5.0,9.0,96,0.00,,,0.06,,2013-10-11 01:52:00,
2013-10-10 22:02:00,61.0,60.0,29.95,North,356,5.0,9.0,96,0.00,,,0.06,,2013-10-11 02:02:00,